sensor_id;sensor_type;location;lat;lon;timestamp;pressure;altitude;pressure_sealevel;temperature;humidity
50172;BME280;37125;48.824;2.410;2023-05-25T00:00:09;101511.87;;;23.66;39.24
50172;BME280;37125;48.824;2.410;2023-05-25T00:00:40;101509.06;;;23.67;39.14
50172;BME280;37125;48.824;2.410;2023-05-25T00:01:11;101508.48;;;23.65;39.14
50172;BME280;37125;48.824;2.410;2023-05-25T00:01:42;101510.57;;;23.65;39.14
50172;BME280;37125;48.824;2.410;2023-05-25T00:02:13;101507.13;;;23.65;39.12
50172;BME280;37125;48.824;2.410;2023-05-25T00:02:44;101511.07;;;23.64;39.15
50172;BME280;37125;48.824;2.410;2023-05-25T00:03:14;101508.00;;;23.64;39.12
50172;BME280;37125;48.824;2.410;2023-05-25T00:03:45;101509.18;;;23.64;39.16
50172;BME280;37125;48.824;2.410;2023-05-25T00:04:15;101507.94;;;23.65;39.09
50172;BME280;37125;48.824;2.410;2023-05-25T00:04:46;101509.45;;;23.65;39.13
50172;BME280;37125;48.824;2.410;2023-05-25T00:05:17;101506.46;;;23.65;39.14
50172;BME280;37125;48.824;2.410;2023-05-25T00:05:47;101507.10;;;23.65;39.18
50172;BME280;37125;48.824;2.410;2023-05-25T00:06:18;101504.59;;;23.66;39.09
50172;BME280;37125;48.824;2.410;2023-05-25T00:06:49;101505.11;;;23.65;39.11
50172;BME280;37125;48.824;2.410;2023-05-25T00:07:19;101506.31;;;23.65;39.08
50172;BME280;37125;48.824;2.410;2023-05-25T00:07:50;101506.74;;;23.65;39.07
50172;BME280;37125;48.824;2.410;2023-05-25T00:08:20;101507.60;;;23.63;39.12
50172;BME280;37125;48.824;2.410;2023-05-25T00:08:51;101507.00;;;23.59;39.15
50172;BME280;37125;48.824;2.410;2023-05-25T00:09:23;101505.57;;;23.60;39.15
50172;BME280;37125;48.824;2.410;2023-05-25T00:09:54;101507.28;;;23.59;39.15
50172;BME280;37125;48.824;2.410;2023-05-25T00:10:24;101504.05;;;23.62;39.07
50172;BME280;37125;48.824;2.410;2023-05-25T00:10:55;101503.67;;;23.63;39.07
50172;BME280;37125;48.824;2.410;2023-05-25T00:11:26;101502.27;;;23.64;39.02
50172;BME280;37125;48.824;2.410;2023-05-25T00:11:56;101504.35;;;23.64;39.02
50172;BME280;37125;48.824;2.410;2023-05-25T00:12:27;101502.39;;;23.62;39.11
50172;BME280;37125;48.824;2.410;2023-05-25T00:12:58;101503.05;;;23.62;39.06
50172;BME280;37125;48.824;2.410;2023-05-25T00:13:28;101506.63;;;23.62;39.01
50172;BME280;37125;48.824;2.410;2023-05-25T00:13:59;101508.12;;;23.60;39.10
50172;BME280;37125;48.824;2.410;2023-05-25T00:14:30;101509.59;;;23.59;39.17
50172;BME280;37125;48.824;2.410;2023-05-25T00:15:00;101511.70;;;23.61;39.08
50172;BME280;37125;48.824;2.410;2023-05-25T00:15:31;101506.52;;;23.63;39.02
50172;BME280;37125;48.824;2.410;2023-05-25T00:16:01;101507.16;;;23.60;39.07
50172;BME280;37125;48.824;2.410;2023-05-25T00:16:32;101506.86;;;23.61;39.05
50172;BME280;37125;48.824;2.410;2023-05-25T00:17:03;101503.79;;;23.59;39.08
50172;BME280;37125;48.824;2.410;2023-05-25T00:17:34;101506.56;;;23.58;39.10
50172;BME280;37125;48.824;2.410;2023-05-25T00:18:05;101507.15;;;23.60;39.07
50172;BME280;37125;48.824;2.410;2023-05-25T00:18:35;101505.95;;;23.61;39.04
50172;BME280;37125;48.824;2.410;2023-05-25T00:19:06;101504.63;;;23.56;39.14
50172;BME280;37125;48.824;2.410;2023-05-25T00:19:37;101506.76;;;23.53;39.17
50172;BME280;37125;48.824;2.410;2023-05-25T00:20:08;101505.73;;;23.58;39.05
50172;BME280;37125;48.824;2.410;2023-05-25T00:20:39;101503.21;;;23.61;38.98
50172;BME280;37125;48.824;2.410;2023-05-25T00:21:09;101502.94;;;23.58;39.11
50172;BME280;37125;48.824;2.410;2023-05-25T00:21:40;101504.76;;;23.57;39.14
50172;BME280;37125;48.824;2.410;2023-05-25T00:22:11;101501.01;;;23.58;39.05
50172;BME280;37125;48.824;2.410;2023-05-25T00:22:43;101501.35;;;23.59;39.05
50172;BME280;37125;48.824;2.410;2023-05-25T00:23:13;101504.47;;;23.56;39.12
50172;BME280;37125;48.824;2.410;2023-05-25T00:23:44;101503.25;;;23.52;39.17
50172;BME280;37125;48.824;2.410;2023-05-25T00:24:14;101503.78;;;23.48;39.24
50172;BME280;37125;48.824;2.410;2023-05-25T00:24:45;101506.06;;;23.52;39.16
50172;BME280;37125;48.824;2.410;2023-05-25T00:25:16;101503.77;;;23.54;39.08
50172;BME280;37125;48.824;2.410;2023-05-25T00:25:46;101505.62;;;23.57;39.04
50172;BME280;37125;48.824;2.410;2023-05-25T00:26:17;101502.69;;;23.59;39.02
50172;BME280;37125;48.824;2.410;2023-05-25T00:26:47;101503.22;;;23.55;39.11
50172;BME280;37125;48.824;2.410;2023-05-25T00:27:18;101501.97;;;23.53;39.12
50172;BME280;37125;48.824;2.410;2023-05-25T00:27:48;101500.02;;;23.56;39.03
50172;BME280;37125;48.824;2.410;2023-05-25T00:28:19;101499.55;;;23.52;39.11
50172;BME280;37125;48.824;2.410;2023-05-25T00:28:50;101499.49;;;23.48;39.22
50172;BME280;37125;48.824;2.410;2023-05-25T00:29:20;101499.96;;;23.47;39.27
50172;BME280;37125;48.824;2.410;2023-05-25T00:29:51;101499.05;;;23.50;39.17
50172;BME280;37125;48.824;2.410;2023-05-25T00:30:22;101499.03;;;23.53;39.12
50172;BME280;37125;48.824;2.410;2023-05-25T00:30:52;101496.71;;;23.57;39.05
50172;BME280;37125;48.824;2.410;2023-05-25T00:31:23;101495.87;;;23.56;39.08
50172;BME280;37125;48.824;2.410;2023-05-25T00:31:53;101500.47;;;23.57;39.01
50172;BME280;37125;48.824;2.410;2023-05-25T00:32:24;101498.36;;;23.58;38.97
50172;BME280;37125;48.824;2.410;2023-05-25T00:32:55;101499.00;;;23.56;39.03
50172;BME280;37125;48.824;2.410;2023-05-25T00:33:26;101499.20;;;23.58;38.95
50172;BME280;37125;48.824;2.410;2023-05-25T00:33:56;101496.71;;;23.55;39.03
50172;BME280;37125;48.824;2.410;2023-05-25T00:34:27;101497.01;;;23.55;39.05
50172;BME280;37125;48.824;2.410;2023-05-25T00:34:58;101501.11;;;23.53;39.11
50172;BME280;37125;48.824;2.410;2023-05-25T00:35:28;101501.25;;;23.51;39.12
50172;BME280;37125;48.824;2.410;2023-05-25T00:35:59;101498.87;;;23.53;39.09
50172;BME280;37125;48.824;2.410;2023-05-25T00:36:30;101498.09;;;23.51;39.10
50172;BME280;37125;48.824;2.410;2023-05-25T00:37:01;101499.49;;;23.49;39.12
50172;BME280;37125;48.824;2.410;2023-05-25T00:37:32;101499.82;;;23.53;39.04
50172;BME280;37125;48.824;2.410;2023-05-25T00:38:03;101501.26;;;23.53;39.07
50172;BME280;37125;48.824;2.410;2023-05-25T00:38:33;101500.41;;;23.54;39.03
50172;BME280;37125;48.824;2.410;2023-05-25T00:39:04;101499.49;;;23.53;39.02
50172;BME280;37125;48.824;2.410;2023-05-25T00:39:35;101500.52;;;23.55;39.02
50172;BME280;37125;48.824;2.410;2023-05-25T00:40:10;101499.98;;;23.54;39.02
50172;BME280;37125;48.824;2.410;2023-05-25T00:40:44;101501.83;;;23.51;39.19
50172;BME280;37125;48.824;2.410;2023-05-25T00:41:16;101501.27;;;23.52;39.09
50172;BME280;37125;48.824;2.410;2023-05-25T00:41:48;101498.51;;;23.47;39.25
50172;BME280;37125;48.824;2.410;2023-05-25T00:42:19;101499.25;;;23.51;39.19
50172;BME280;37125;48.824;2.410;2023-05-25T00:42:50;101500.35;;;23.52;39.17
50172;BME280;37125;48.824;2.410;2023-05-25T00:43:22;101500.80;;;23.51;39.26
50172;BME280;37125;48.824;2.410;2023-05-25T00:43:53;101501.51;;;23.50;39.26
50172;BME280;37125;48.824;2.410;2023-05-25T00:44:23;101499.87;;;23.46;39.33
50172;BME280;37125;48.824;2.410;2023-05-25T00:44:54;101499.69;;;23.48;39.26
50172;BME280;37125;48.824;2.410;2023-05-25T00:45:24;101498.10;;;23.51;39.17
50172;BME280;37125;48.824;2.410;2023-05-25T00:45:55;101500.93;;;23.50;39.26
50172;BME280;37125;48.824;2.410;2023-05-25T00:46:27;101502.30;;;23.50;39.21
50172;BME280;37125;48.824;2.410;2023-05-25T00:46:59;101503.40;;;23.51;39.18
50172;BME280;37125;48.824;2.410;2023-05-25T00:47:30;101501.81;;;23.48;39.25
50172;BME280;37125;48.824;2.410;2023-05-25T00:48:00;101503.64;;;23.41;39.34
50172;BME280;37125;48.824;2.410;2023-05-25T00:48:31;101503.40;;;23.41;39.38
50172;BME280;37125;48.824;2.410;2023-05-25T00:49:03;101507.35;;;23.42;39.33
50172;BME280;37125;48.824;2.410;2023-05-25T00:49:34;101503.26;;;23.47;39.22
50172;BME280;37125;48.824;2.410;2023-05-25T00:50:08;101502.28;;;23.50;39.17
50172;BME280;37125;48.824;2.410;2023-05-25T00:50:41;101503.43;;;23.50;39.12
50172;BME280;37125;48.824;2.410;2023-05-25T00:51:13;101499.43;;;23.52;39.04
50172;BME280;37125;48.824;2.410;2023-05-25T00:51:45;101501.23;;;23.50;39.14
50172;BME280;37125;48.824;2.410;2023-05-25T00:52:16;101499.38;;;23.52;39.05
50172;BME280;37125;48.824;2.410;2023-05-25T00:52:47;101497.51;;;23.52;39.09
50172;BME280;37125;48.824;2.410;2023-05-25T00:53:19;101500.87;;;23.51;39.09
50172;BME280;37125;48.824;2.410;2023-05-25T00:53:50;101499.89;;;23.52;39.09
50172;BME280;37125;48.824;2.410;2023-05-25T00:54:21;101501.69;;;23.53;39.02
50172;BME280;37125;48.824;2.410;2023-05-25T00:54:53;101503.59;;;23.49;39.13
50172;BME280;37125;48.824;2.410;2023-05-25T00:55:26;101501.69;;;23.46;39.15
50172;BME280;37125;48.824;2.410;2023-05-25T00:56:04;101503.51;;;23.47;39.14
50172;BME280;37125;48.824;2.410;2023-05-25T00:56:37;101504.02;;;23.51;39.02
50172;BME280;37125;48.824;2.410;2023-05-25T00:57:10;101503.27;;;23.52;38.98
50172;BME280;37125;48.824;2.410;2023-05-25T00:57:45;101498.57;;;23.50;39.01
50172;BME280;37125;48.824;2.410;2023-05-25T00:58:20;101499.13;;;23.50;38.97
50172;BME280;37125;48.824;2.410;2023-05-25T00:58:54;101497.66;;;23.47;39.05
50172;BME280;37125;48.824;2.410;2023-05-25T00:59:30;101495.97;;;23.47;39.05
50172;BME280;37125;48.824;2.410;2023-05-25T01:00:03;101497.63;;;23.50;39.01
50172;BME280;37125;48.824;2.410;2023-05-25T01:00:36;101496.61;;;23.48;39.09
50172;BME280;37125;48.824;2.410;2023-05-25T01:01:10;101496.89;;;23.44;39.15
50172;BME280;37125;48.824;2.410;2023-05-25T01:01:43;101498.66;;;23.44;39.14
50172;BME280;37125;48.824;2.410;2023-05-25T01:02:15;101501.08;;;23.40;39.25
50172;BME280;37125;48.824;2.410;2023-05-25T01:02:51;101498.00;;;23.40;39.21
50172;BME280;37125;48.824;2.410;2023-05-25T01:03:22;101496.19;;;23.43;39.18
50172;BME280;37125;48.824;2.410;2023-05-25T01:03:56;101496.57;;;23.41;39.28
50172;BME280;37125;48.824;2.410;2023-05-25T01:04:29;101496.25;;;23.43;39.25
50172;BME280;37125;48.824;2.410;2023-05-25T01:05:01;101496.50;;;23.42;39.31
50172;BME280;37125;48.824;2.410;2023-05-25T01:05:37;101494.75;;;23.44;39.20
50172;BME280;37125;48.824;2.410;2023-05-25T01:06:12;101493.04;;;23.45;39.21
50172;BME280;37125;48.824;2.410;2023-05-25T01:06:47;101495.33;;;23.44;39.29
50172;BME280;37125;48.824;2.410;2023-05-25T01:07:22;101494.23;;;23.42;39.28
50172;BME280;37125;48.824;2.410;2023-05-25T01:07:54;101494.00;;;23.39;39.33
50172;BME280;37125;48.824;2.410;2023-05-25T01:08:27;101493.01;;;23.41;39.30
50172;BME280;37125;48.824;2.410;2023-05-25T01:09:02;101493.19;;;23.39;39.32
50172;BME280;37125;48.824;2.410;2023-05-25T01:09:34;101491.56;;;23.41;39.28
50172;BME280;37125;48.824;2.410;2023-05-25T01:10:08;101492.52;;;23.39;39.33
50172;BME280;37125;48.824;2.410;2023-05-25T01:10:41;101493.39;;;23.44;39.19
50172;BME280;37125;48.824;2.410;2023-05-25T01:11:13;101493.67;;;23.45;39.19
50172;BME280;37125;48.824;2.410;2023-05-25T01:11:49;101494.42;;;23.44;39.18
50172;BME280;37125;48.824;2.410;2023-05-25T01:12:21;101493.79;;;23.37;39.28
50172;BME280;37125;48.824;2.410;2023-05-25T01:12:54;101497.19;;;23.42;39.17
50172;BME280;37125;48.824;2.410;2023-05-25T01:13:26;101493.98;;;23.44;39.18
50172;BME280;37125;48.824;2.410;2023-05-25T01:13:58;101495.00;;;23.39;39.28
50172;BME280;37125;48.824;2.410;2023-05-25T01:14:30;101495.94;;;23.42;39.19
50172;BME280;37125;48.824;2.410;2023-05-25T01:15:03;101497.20;;;23.45;39.06
50172;BME280;37125;48.824;2.410;2023-05-25T01:15:36;101496.72;;;23.44;39.10
50172;BME280;37125;48.824;2.410;2023-05-25T01:16:08;101495.83;;;23.42;39.08
50172;BME280;37125;48.824;2.410;2023-05-25T01:16:40;101494.21;;;23.46;39.02
50172;BME280;37125;48.824;2.410;2023-05-25T01:17:12;101495.97;;;23.48;38.96
50172;BME280;37125;48.824;2.410;2023-05-25T01:17:43;101489.34;;;23.47;38.95
50172;BME280;37125;48.824;2.410;2023-05-25T01:18:15;101489.85;;;23.43;39.06
50172;BME280;37125;48.824;2.410;2023-05-25T01:18:46;101491.12;;;23.43;39.07
50172;BME280;37125;48.824;2.410;2023-05-25T01:19:17;101490.46;;;23.41;39.12
50172;BME280;37125;48.824;2.410;2023-05-25T01:19:48;101490.59;;;23.41;39.12
50172;BME280;37125;48.824;2.410;2023-05-25T01:20:18;101488.47;;;23.39;39.25
50172;BME280;37125;48.824;2.410;2023-05-25T01:20:54;101491.89;;;23.37;39.24
50172;BME280;37125;48.824;2.410;2023-05-25T01:21:32;101493.01;;;23.41;39.21
50172;BME280;37125;48.824;2.410;2023-05-25T01:22:10;101493.15;;;23.43;39.19
50172;BME280;37125;48.824;2.410;2023-05-25T01:22:46;101495.13;;;23.40;39.23
50172;BME280;37125;48.824;2.410;2023-05-25T01:23:18;101491.82;;;23.31;39.43
50172;BME280;37125;48.824;2.410;2023-05-25T01:23:57;101489.74;;;23.29;39.43
50172;BME280;37125;48.824;2.410;2023-05-25T01:24:35;101491.32;;;23.32;39.35
50172;BME280;37125;48.824;2.410;2023-05-25T01:25:12;101493.21;;;23.35;39.22
50172;BME280;37125;48.824;2.410;2023-05-25T01:25:49;101496.42;;;23.39;39.11
50172;BME280;37125;48.824;2.410;2023-05-25T01:26:23;101494.61;;;23.41;38.98
50172;BME280;37125;48.824;2.410;2023-05-25T01:27:02;101494.39;;;23.35;39.10
50172;BME280;37125;48.824;2.410;2023-05-25T01:27:39;101494.34;;;23.39;39.04
50172;BME280;37125;48.824;2.410;2023-05-25T01:28:11;101494.60;;;23.42;38.97
50172;BME280;37125;48.824;2.410;2023-05-25T01:28:47;101494.90;;;23.46;38.91
50172;BME280;37125;48.824;2.410;2023-05-25T01:29:20;101493.50;;;23.46;38.95
50172;BME280;37125;48.824;2.410;2023-05-25T01:29:53;101492.54;;;23.39;39.08
50172;BME280;37125;48.824;2.410;2023-05-25T01:30:26;101492.34;;;23.41;39.08
50172;BME280;37125;48.824;2.410;2023-05-25T01:30:57;101493.61;;;23.40;39.06
50172;BME280;37125;48.824;2.410;2023-05-25T01:31:29;101493.27;;;23.30;39.25
50172;BME280;37125;48.824;2.410;2023-05-25T01:32:02;101495.45;;;23.36;39.08
50172;BME280;37125;48.824;2.410;2023-05-25T01:32:33;101496.66;;;23.34;39.08
50172;BME280;37125;48.824;2.410;2023-05-25T01:33:06;101496.11;;;23.28;39.21
50172;BME280;37125;48.824;2.410;2023-05-25T01:33:37;101494.54;;;23.29;39.15
50172;BME280;37125;48.824;2.410;2023-05-25T01:34:08;101495.52;;;23.33;39.03
50172;BME280;37125;48.824;2.410;2023-05-25T01:34:42;101497.24;;;23.32;39.11
50172;BME280;37125;48.824;2.410;2023-05-25T01:35:13;101498.23;;;23.36;39.01
50172;BME280;37125;48.824;2.410;2023-05-25T01:35:45;101497.07;;;23.32;39.08
50172;BME280;37125;48.824;2.410;2023-05-25T01:36:17;101498.19;;;23.35;39.07
50172;BME280;37125;48.824;2.410;2023-05-25T01:36:48;101496.20;;;23.35;39.11
50172;BME280;37125;48.824;2.410;2023-05-25T01:37:19;101495.01;;;23.32;39.20
50172;BME280;37125;48.824;2.410;2023-05-25T01:37:51;101495.27;;;23.33;39.23
50172;BME280;37125;48.824;2.410;2023-05-25T01:38:21;101495.76;;;23.36;39.12
50172;BME280;37125;48.824;2.410;2023-05-25T01:38:52;101495.02;;;23.37;39.14
50172;BME280;37125;48.824;2.410;2023-05-25T01:39:23;101497.48;;;23.38;39.15
50172;BME280;37125;48.824;2.410;2023-05-25T01:39:53;101495.41;;;23.36;39.18
50172;BME280;37125;48.824;2.410;2023-05-25T01:40:24;101495.59;;;23.37;39.14
50172;BME280;37125;48.824;2.410;2023-05-25T01:40:54;101500.98;;;23.34;39.22
50172;BME280;37125;48.824;2.410;2023-05-25T01:41:25;101499.41;;;23.34;39.28
50172;BME280;37125;48.824;2.410;2023-05-25T01:41:56;101498.82;;;23.35;39.28
50172;BME280;37125;48.824;2.410;2023-05-25T01:42:27;101498.06;;;23.40;39.14
50172;BME280;37125;48.824;2.410;2023-05-25T01:42:57;101501.60;;;23.37;39.22
50172;BME280;37125;48.824;2.410;2023-05-25T01:43:28;101502.83;;;23.36;39.25
50172;BME280;37125;48.824;2.410;2023-05-25T01:43:58;101500.33;;;23.38;39.16
50172;BME280;37125;48.824;2.410;2023-05-25T01:44:29;101500.99;;;23.38;39.15
50172;BME280;37125;48.824;2.410;2023-05-25T01:45:00;101502.35;;;23.41;39.08
50172;BME280;37125;48.824;2.410;2023-05-25T01:45:31;101500.93;;;23.42;39.11
50172;BME280;37125;48.824;2.410;2023-05-25T01:46:17;101499.37;;;23.41;39.08
50172;BME280;37125;48.824;2.410;2023-05-25T01:46:51;101496.63;;;23.38;39.13
50172;BME280;37125;48.824;2.410;2023-05-25T01:47:30;101496.88;;;23.35;39.21
50172;BME280;37125;48.824;2.410;2023-05-25T01:48:06;101501.79;;;23.35;39.23
50172;BME280;37125;48.824;2.410;2023-05-25T01:48:46;101499.65;;;23.33;39.27
50172;BME280;37125;48.824;2.410;2023-05-25T01:49:26;101500.99;;;23.31;39.27
50172;BME280;37125;48.824;2.410;2023-05-25T01:50:03;101504.80;;;23.33;39.25
50172;BME280;37125;48.824;2.410;2023-05-25T01:50:39;101502.45;;;23.37;39.14
50172;BME280;37125;48.824;2.410;2023-05-25T01:51:18;101505.01;;;23.36;39.22
50172;BME280;37125;48.824;2.410;2023-05-25T01:51:57;101508.17;;;23.35;39.20
50172;BME280;37125;48.824;2.410;2023-05-25T01:52:32;101500.72;;;23.37;39.19
50172;BME280;37125;48.824;2.410;2023-05-25T01:53:09;101502.97;;;23.29;39.38
50172;BME280;37125;48.824;2.410;2023-05-25T01:53:43;101503.72;;;23.30;39.34
50172;BME280;37125;48.824;2.410;2023-05-25T01:54:18;101502.97;;;23.34;39.28
50172;BME280;37125;48.824;2.410;2023-05-25T01:54:52;101506.98;;;23.36;39.17
50172;BME280;37125;48.824;2.410;2023-05-25T01:55:26;101507.26;;;23.35;39.22
50172;BME280;37125;48.824;2.410;2023-05-25T01:56:01;101508.62;;;23.35;39.22
50172;BME280;37125;48.824;2.410;2023-05-25T01:56:33;101506.85;;;23.37;39.17
50172;BME280;37125;48.824;2.410;2023-05-25T01:57:08;101506.12;;;23.39;39.14
50172;BME280;37125;48.824;2.410;2023-05-25T01:57:42;101508.35;;;23.39;39.11
50172;BME280;37125;48.824;2.410;2023-05-25T01:58:16;101511.17;;;23.37;39.18
50172;BME280;37125;48.824;2.410;2023-05-25T01:58:49;101508.06;;;23.33;39.30
50172;BME280;37125;48.824;2.410;2023-05-25T01:59:21;101508.87;;;23.29;39.37
50172;BME280;37125;48.824;2.410;2023-05-25T01:59:54;101508.87;;;23.33;39.19
50172;BME280;37125;48.824;2.410;2023-05-25T02:00:28;101510.09;;;23.35;39.21
50172;BME280;37125;48.824;2.410;2023-05-25T02:00:59;101507.06;;;23.33;39.23
50172;BME280;37125;48.824;2.410;2023-05-25T02:01:31;101509.72;;;23.34;39.22
50172;BME280;37125;48.824;2.410;2023-05-25T02:02:04;101512.42;;;23.34;39.20
50172;BME280;37125;48.824;2.410;2023-05-25T02:02:35;101511.69;;;23.36;39.15
50172;BME280;37125;48.824;2.410;2023-05-25T02:03:07;101514.12;;;23.32;39.26
50172;BME280;37125;48.824;2.410;2023-05-25T02:03:38;101511.62;;;23.29;39.30
50172;BME280;37125;48.824;2.410;2023-05-25T02:04:10;101514.48;;;23.34;39.22
50172;BME280;37125;48.824;2.410;2023-05-25T02:04:42;101514.77;;;23.33;39.27
50172;BME280;37125;48.824;2.410;2023-05-25T02:05:13;101512.52;;;23.32;39.28
50172;BME280;37125;48.824;2.410;2023-05-25T02:05:44;101513.27;;;23.30;39.34
50172;BME280;37125;48.824;2.410;2023-05-25T02:06:16;101515.20;;;23.31;39.31
50172;BME280;37125;48.824;2.410;2023-05-25T02:06:47;101513.21;;;23.34;39.22
50172;BME280;37125;48.824;2.410;2023-05-25T02:07:18;101515.02;;;23.35;39.25
50172;BME280;37125;48.824;2.410;2023-05-25T02:07:48;101516.32;;;23.31;39.32
50172;BME280;37125;48.824;2.410;2023-05-25T02:08:19;101514.58;;;23.29;39.34
50172;BME280;37125;48.824;2.410;2023-05-25T02:08:49;101512.18;;;23.29;39.30
50172;BME280;37125;48.824;2.410;2023-05-25T02:09:20;101513.71;;;23.29;39.31
50172;BME280;37125;48.824;2.410;2023-05-25T02:09:51;101514.77;;;23.30;39.31
50172;BME280;37125;48.824;2.410;2023-05-25T02:10:21;101514.97;;;23.30;39.31
50172;BME280;37125;48.824;2.410;2023-05-25T02:10:52;101516.23;;;23.26;39.36
50172;BME280;37125;48.824;2.410;2023-05-25T02:11:22;101514.39;;;23.30;39.27
50172;BME280;37125;48.824;2.410;2023-05-25T02:11:53;101511.72;;;23.32;39.24
50172;BME280;37125;48.824;2.410;2023-05-25T02:12:24;101510.44;;;23.24;39.38
50172;BME280;37125;48.824;2.410;2023-05-25T02:12:54;101508.76;;;23.20;39.51
50172;BME280;37125;48.824;2.410;2023-05-25T02:13:25;101509.11;;;23.19;39.49
50172;BME280;37125;48.824;2.410;2023-05-25T02:13:56;101511.66;;;23.18;39.52
50172;BME280;37125;48.824;2.410;2023-05-25T02:14:27;101513.00;;;23.24;39.40
50172;BME280;37125;48.824;2.410;2023-05-25T02:14:57;101513.93;;;23.24;39.49
50172;BME280;37125;48.824;2.410;2023-05-25T02:15:30;101511.15;;;23.18;39.52
50172;BME280;37125;48.824;2.410;2023-05-25T02:16:01;101513.17;;;23.16;39.61
50172;BME280;37125;48.824;2.410;2023-05-25T02:16:32;101510.78;;;23.17;39.53
50172;BME280;37125;48.824;2.410;2023-05-25T02:17:03;101513.57;;;23.23;39.40
50172;BME280;37125;48.824;2.410;2023-05-25T02:17:34;101513.00;;;23.23;39.39
50172;BME280;37125;48.824;2.410;2023-05-25T02:18:04;101511.47;;;23.24;39.39
50172;BME280;37125;48.824;2.410;2023-05-25T02:18:35;101509.75;;;23.19;39.53
50172;BME280;37125;48.824;2.410;2023-05-25T02:19:06;101512.21;;;23.25;39.35
50172;BME280;37125;48.824;2.410;2023-05-25T02:19:36;101511.48;;;23.27;39.31
50172;BME280;37125;48.824;2.410;2023-05-25T02:20:08;101509.34;;;23.22;39.46
50172;BME280;37125;48.824;2.410;2023-05-25T02:20:39;101507.67;;;23.18;39.56
50172;BME280;37125;48.824;2.410;2023-05-25T02:21:09;101509.39;;;23.18;39.56
50172;BME280;37125;48.824;2.410;2023-05-25T02:21:40;101509.01;;;23.18;39.53
50172;BME280;37125;48.824;2.410;2023-05-25T02:22:11;101512.66;;;23.24;39.40
50172;BME280;37125;48.824;2.410;2023-05-25T02:22:42;101511.30;;;23.15;39.60
50172;BME280;37125;48.824;2.410;2023-05-25T02:23:12;101511.65;;;23.10;39.77
50172;BME280;37125;48.824;2.410;2023-05-25T02:23:44;101511.84;;;23.15;39.59
50172;BME280;37125;48.824;2.410;2023-05-25T02:24:14;101514.14;;;23.13;39.66
50172;BME280;37125;48.824;2.410;2023-05-25T02:24:45;101514.36;;;23.17;39.53
50172;BME280;37125;48.824;2.410;2023-05-25T02:25:16;101514.61;;;23.17;39.55
50172;BME280;37125;48.824;2.410;2023-05-25T02:25:46;101513.44;;;23.20;39.48
50172;BME280;37125;48.824;2.410;2023-05-25T02:26:17;101517.42;;;23.29;39.31
50172;BME280;37125;48.824;2.410;2023-05-25T02:26:47;101514.41;;;23.21;39.48
50172;BME280;37125;48.824;2.410;2023-05-25T02:27:18;101514.55;;;23.15;39.57
50172;BME280;37125;48.824;2.410;2023-05-25T02:27:49;101514.58;;;23.22;39.38
50172;BME280;37125;48.824;2.410;2023-05-25T02:28:19;101514.92;;;23.24;39.40
50172;BME280;37125;48.824;2.410;2023-05-25T02:28:50;101514.55;;;23.20;39.41
50172;BME280;37125;48.824;2.410;2023-05-25T02:29:21;101513.60;;;23.16;39.51
50172;BME280;37125;48.824;2.410;2023-05-25T02:29:51;101513.75;;;23.16;39.52
50172;BME280;37125;48.824;2.410;2023-05-25T02:30:22;101509.59;;;23.06;39.73
50172;BME280;37125;48.824;2.410;2023-05-25T02:30:53;101515.10;;;23.17;39.48
50172;BME280;37125;48.824;2.410;2023-05-25T02:31:23;101514.90;;;23.19;39.46
50172;BME280;37125;48.824;2.410;2023-05-25T02:31:54;101516.92;;;23.22;39.36
50172;BME280;37125;48.824;2.410;2023-05-25T02:32:25;101515.30;;;23.25;39.31
50172;BME280;37125;48.824;2.410;2023-05-25T02:32:56;101514.72;;;23.23;39.32
50172;BME280;37125;48.824;2.410;2023-05-25T02:33:26;101515.33;;;23.19;39.42
50172;BME280;37125;48.824;2.410;2023-05-25T02:33:57;101515.51;;;23.16;39.50
50172;BME280;37125;48.824;2.410;2023-05-25T02:34:28;101518.18;;;23.21;39.36
50172;BME280;37125;48.824;2.410;2023-05-25T02:34:58;101516.14;;;23.17;39.46
50172;BME280;37125;48.824;2.410;2023-05-25T02:35:29;101516.68;;;23.22;39.34
50172;BME280;37125;48.824;2.410;2023-05-25T02:35:59;101518.52;;;23.19;39.38
50172;BME280;37125;48.824;2.410;2023-05-25T02:36:30;101518.75;;;23.22;39.35
50172;BME280;37125;48.824;2.410;2023-05-25T02:37:01;101519.56;;;23.24;39.32
50172;BME280;37125;48.824;2.410;2023-05-25T02:37:31;101520.00;;;23.18;39.44
50172;BME280;37125;48.824;2.410;2023-05-25T02:38:02;101519.85;;;23.19;39.39
50172;BME280;37125;48.824;2.410;2023-05-25T02:38:33;101517.62;;;23.16;39.44
50172;BME280;37125;48.824;2.410;2023-05-25T02:39:04;101521.09;;;23.10;39.50
50172;BME280;37125;48.824;2.410;2023-05-25T02:39:34;101522.45;;;23.17;39.39
50172;BME280;37125;48.824;2.410;2023-05-25T02:40:06;101520.41;;;23.16;39.38
50172;BME280;37125;48.824;2.410;2023-05-25T02:40:36;101522.69;;;23.15;39.42
50172;BME280;37125;48.824;2.410;2023-05-25T02:41:07;101525.56;;;23.18;39.34
50172;BME280;37125;48.824;2.410;2023-05-25T02:41:37;101525.64;;;23.18;39.32
50172;BME280;37125;48.824;2.410;2023-05-25T02:42:08;101524.78;;;23.25;39.20
50172;BME280;37125;48.824;2.410;2023-05-25T02:42:39;101526.41;;;23.19;39.31
50172;BME280;37125;48.824;2.410;2023-05-25T02:43:10;101527.84;;;23.18;39.30
50172;BME280;37125;48.824;2.410;2023-05-25T02:43:40;101527.85;;;23.18;39.33
50172;BME280;37125;48.824;2.410;2023-05-25T02:44:11;101526.84;;;23.18;39.34
50172;BME280;37125;48.824;2.410;2023-05-25T02:44:42;101527.22;;;23.19;39.27
50172;BME280;37125;48.824;2.410;2023-05-25T02:45:13;101528.32;;;23.16;39.37
50172;BME280;37125;48.824;2.410;2023-05-25T02:45:43;101527.05;;;23.18;39.33
50172;BME280;37125;48.824;2.410;2023-05-25T02:46:14;101527.53;;;23.21;39.23
50172;BME280;37125;48.824;2.410;2023-05-25T02:46:45;101529.14;;;23.24;39.20